Terminal Aerodrome Forecast
Issued by NWS

Current Version | Previous Version | Text Only | Print | Product List | Glossary On
Versions: 1 2 3 4 5 6 7 8 9 10 11 12 13 14 15 16 17 18 19 20 21 22 23 24 25
000
FTUS41 KBUF 281700
TAFIAG
TAF
KIAG 281732Z 2818/2918 29004KT P6SM FEW250
     FM290600 17004KT P6SM BKN120
     FM291200 14006KT P6SM VCSH OVC035
     FM291400 14010KT P6SM OVC050
     FM291700 16013KT P6SM VCSH OVC060=

USA.gov is the U.S. government's official web portal to all federal, state and local government web resources and services.